Time;durP1;ratioP1;P1;durP2;ratioP2;P2;SDS_P1;SDS_P2;PMS_P1;PMS_P2;Temp;Humidity;BMP_temperature;BMP_pressure;BME280_temperature;BME280_humidity;BME280_pressure;Samples;Min_cycle;Max_cycle;Signal;HPM_P1;HPM_P2
2021/06/28 00:01:12;;;;;;;8.77;3.75;;;;;;;16.16;63.41;101321.22;5011991;28;20073;-39
2021/06/28 00:03:41;;;;;;;7.63;3.58;;;;;;;16.18;63.09;101326.41;5010789;28;20046;-40
2021/06/28 00:06:09;;;;;;;5.57;3.00;;;;;;;16.10;63.40;101321.88;5010204;28;20057;-43
2021/06/28 00:08:37;;;;;;;8.15;3.17;;;;;;;16.04;63.46;101318.59;5010762;28;20460;-40
2021/06/28 00:11:06;;;;;;;11.85;3.95;;;;;;;16.02;63.34;101312.53;5011616;28;20163;-39
2021/06/28 00:13:38;;;;;;;4.35;3.28;;;;;;;16.00;63.75;101316.88;5011033;28;20121;-39
2021/06/28 00:16:12;;;;;;;5.15;3.30;;;;;;;15.96;63.70;101316.00;5006999;28;20060;-39
2021/06/28 00:18:40;;;;;;;4.28;3.33;;;;;;;15.89;63.76;101313.88;5010594;28;20133;-39
2021/06/28 00:21:09;;;;;;;4.72;2.80;;;;;;;15.89;63.85;101305.50;5010621;28;20574;-39
2021/06/28 00:23:36;;;;;;;6.10;3.67;;;;;;;15.85;63.93;101307.41;4990207;28;20048;-39
2021/06/28 00:26:04;;;;;;;4.47;3.58;;;;;;;15.86;63.82;101306.22;4992558;28;20042;-38
2021/06/28 00:28:31;;;;;;;6.97;4.05;;;;;;;15.83;63.92;101302.19;5010987;28;20140;-38
2021/06/28 00:30:58;;;;;;;6.55;3.25;;;;;;;15.79;64.08;101304.09;5010519;28;20564;-38
2021/06/28 00:33:25;;;;;;;7.40;3.83;;;;;;;15.72;63.98;101301.16;5010637;28;20065;-38
2021/06/28 00:35:52;;;;;;;4.03;3.45;;;;;;;15.65;63.95;101302.97;5009901;28;20041;-39
2021/06/28 00:38:19;;;;;;;7.90;4.13;;;;;;;15.61;64.16;101300.13;5011290;28;20084;-39
2021/06/28 00:40:47;;;;;;;7.78;3.58;;;;;;;15.58;64.23;101294.47;5010599;28;20100;-42
2021/06/28 00:43:14;;;;;;;6.32;3.40;;;;;;;15.58;64.08;101298.06;5011403;28;20469;-38
2021/06/28 00:45:45;;;;;;;6.68;3.22;;;;;;;15.56;64.13;101297.63;5009407;28;20048;-39
2021/06/28 00:48:15;;;;;;;6.57;3.40;;;;;;;15.54;64.14;101291.59;5011557;28;20045;-38
2021/06/28 00:50:47;;;;;;;6.10;3.75;;;;;;;15.59;63.83;101290.50;5010601;28;20140;-38
2021/06/28 00:53:16;;;;;;;8.38;3.20;;;;;;;15.58;63.96;101288.88;5010877;28;20080;-44
2021/06/28 00:55:44;;;;;;;7.55;3.70;;;;;;;15.58;63.87;101286.91;5009958;28;20049;-39
2021/06/28 00:58:11;;;;;;;8.00;3.67;;;;;;;15.51;64.25;101289.53;5011132;28;20140;-38
2021/06/28 01:00:39;;;;;;;7.63;3.55;;;;;;;15.48;64.22;101284.69;5009853;28;20541;-39
2021/06/28 01:03:07;;;;;;;3.97;3.47;;;;;;;15.53;64.33;101291.97;5011276;28;20041;-38
2021/06/28 01:05:36;;;;;;;5.45;3.38;;;;;;;15.60;63.83;101280.94;5009522;28;20104;-38
2021/06/28 01:08:05;;;;;;;9.57;5.50;;;;;;;15.58;63.94;101288.88;5008450;28;20037;-38
2021/06/28 01:10:33;;;;;;;5.68;3.30;;;;;;;15.54;64.22;101283.22;5010454;28;20546;-38
2021/06/28 01:13:00;;;;;;;8.65;4.22;;;;;;;15.52;64.13;101293.94;5010128;28;20088;-38
2021/06/28 01:15:27;;;;;;;5.72;3.70;;;;;;;15.38;64.63;101285.22;5007210;28;20112;-39
2021/06/28 01:17:54;;;;;;;5.82;2.88;;;;;;;15.45;64.30;101285.38;5009831;28;20053;-38
2021/06/28 01:20:28;;;;;;;6.28;4.03;;;;;;;15.44;64.53;101285.72;5011181;28;20049;-39
2021/06/28 01:22:57;;;;;;;7.68;3.75;;;;;;;15.36;64.63;101281.97;5010166;28;20062;-39
2021/06/28 01:25:28;;;;;;;8.68;4.03;;;;;;;15.29;64.92;101278.22;5010063;28;20037;-40
2021/06/28 01:27:55;;;;;;;7.15;3.42;;;;;;;15.31;64.71;101275.88;5007166;28;20038;-39
2021/06/28 01:30:29;;;;;;;5.45;3.47;;;;;;;15.22;65.23;101276.09;5010305;28;20046;-38
2021/06/28 01:32:57;;;;;;;4.60;3.42;;;;;;;15.14;65.24;101275.09;5010878;28;20104;-39
2021/06/28 01:35:24;;;;;;;6.78;4.38;;;;;;;15.13;65.39;101279.06;5010057;28;20096;-38
2021/06/28 01:37:51;;;;;;;6.15;4.10;;;;;;;15.07;65.52;101274.94;4992279;28;20038;-38
2021/06/28 01:40:18;;;;;;;8.20;4.82;;;;;;;15.03;65.66;101276.03;5013568;28;20046;-39
2021/06/28 01:42:47;;;;;;;6.93;3.83;;;;;;;15.03;65.85;101271.28;5014720;28;20065;-38
2021/06/28 01:45:22;;;;;;;8.20;4.15;;;;;;;15.03;65.86;101267.69;5012588;28;20123;-39
2021/06/28 01:47:54;;;;;;;7.60;4.25;;;;;;;15.13;65.67;101273.50;5011507;28;20084;-38
2021/06/28 01:50:23;;;;;;;5.22;3.85;;;;;;;15.21;65.11;101268.88;5013019;28;20487;-42
2021/06/28 01:52:51;;;;;;;4.70;3.38;;;;;;;15.34;64.78;101272.34;5013534;28;20077;-38
2021/06/28 01:55:19;;;;;;;6.88;4.43;;;;;;;15.34;64.74;101266.78;5012331;28;20046;-38
2021/06/28 01:57:53;;;;;;;8.13;4.25;;;;;;;15.30;65.10;101271.47;5013358;28;20080;-39
2021/06/28 02:00:28;;;;;;;5.85;3.60;;;;;;;15.38;64.56;101268.47;5013514;28;20058;-38
2021/06/28 02:02:59;;;;;;;7.45;4.15;;;;;;;15.34;64.70;101266.78;5008672;28;20053;-39
2021/06/28 02:05:30;;;;;;;8.82;4.88;;;;;;;15.17;65.18;101268.81;5012465;28;20042;-39
2021/06/28 02:07:58;;;;;;;6.32;4.75;;;;;;;15.02;65.82;101269.66;4995775;28;20040;-39
2021/06/28 02:10:25;;;;;;;7.75;4.05;;;;;;;15.09;65.85;101272.59;5012528;28;20058;-38
2021/06/28 02:12:52;;;;;;;8.90;4.22;;;;;;;15.13;65.58;101273.50;5011955;28;20156;-39
2021/06/28 02:15:22;;;;;;;7.13;4.75;;;;;;;15.12;65.85;101266.28;4994851;28;20137;-41
2021/06/28 02:17:49;;;;;;;12.25;5.88;;;;;;;15.15;65.94;101271.16;4994556;28;20073;-39
2021/06/28 02:20:20;;;;;;;13.18;4.45;;;;;;;15.11;66.24;101264.69;5012557;28;20045;-39
2021/06/28 02:22:49;;;;;;;7.30;4.85;;;;;;;15.13;66.01;101270.72;5013765;28;20046;-39
2021/06/28 02:25:17;;;;;;;7.45;3.85;;;;;;;15.20;65.90;101276.44;5011745;28;20104;-38
2021/06/28 02:27:45;;;;;;;4.82;3.85;;;;;;;15.30;65.74;101277.06;5011700;28;20176;-39
2021/06/28 02:30:15;;;;;;;7.75;4.50;;;;;;;15.29;65.46;101275.44;5011433;28;20042;-38
2021/06/28 02:32:43;;;;;;;9.13;5.10;;;;;;;15.23;65.46;101264.56;5014831;28;20050;-46
2021/06/28 02:35:12;;;;;;;8.20;4.70;;;;;;;15.19;65.55;101268.44;4999239;28;20061;-39
2021/06/28 02:37:41;;;;;;;8.93;4.50;;;;;;;15.18;65.58;101267.63;5007831;28;20050;-38
2021/06/28 02:40:11;;;;;;;8.32;4.70;;;;;;;15.15;65.37;101260.00;5011837;28;20045;-39
2021/06/28 02:42:38;;;;;;;8.10;4.55;;;;;;;15.09;65.20;101258.66;5011515;28;20052;-39
2021/06/28 02:45:07;;;;;;;6.28;3.70;;;;;;;15.05;65.10;101259.75;4992228;28;20750;-39
2021/06/28 02:47:35;;;;;;;7.53;4.38;;;;;;;15.04;65.26;101258.94;5010410;28;20042;-39
2021/06/28 02:50:12;;;;;;;6.50;3.60;;;;;;;15.04;65.03;101258.13;5009656;28;20120;-39
2021/06/28 02:52:43;;;;;;;7.13;4.72;;;;;;;15.08;64.90;101259.84;5001650;28;20041;-39
2021/06/28 02:55:11;;;;;;;8.00;4.05;;;;;;;15.07;64.78;101255.41;5009446;28;20050;-39
2021/06/28 02:57:41;;;;;;;10.70;3.97;;;;;;;15.04;64.70;101256.16;5010860;28;20621;-39
2021/06/28 03:00:12;;;;;;;6.70;4.50;;;;;;;14.98;64.69;101254.00;5012432;28;20049;-39
2021/06/28 03:02:39;;;;;;;8.20;4.60;;;;;;;14.98;64.64;101252.03;5013058;28;20040;-38
2021/06/28 03:05:08;;;;;;;6.28;4.45;;;;;;;14.95;64.54;101252.75;5011467;28;20096;-39
2021/06/28 03:07:35;;;;;;;7.55;3.90;;;;;;;14.87;64.56;101258.53;5011824;28;20038;-39
2021/06/28 03:10:06;;;;;;;5.85;3.58;;;;;;;14.90;64.45;101241.88;5011590;28;20097;-39
2021/06/28 03:12:34;;;;;;;5.70;4.05;;;;;;;15.04;63.89;101246.97;5012977;28;20050;-38
2021/06/28 03:15:01;;;;;;;8.13;4.85;;;;;;;15.06;63.68;101251.00;5011232;28;20061;-38
2021/06/28 03:17:28;;;;;;;7.28;3.78;;;;;;;14.99;63.67;101258.41;5011817;28;20157;-39
2021/06/28 03:19:59;;;;;;;6.65;4.22;;;;;;;14.95;63.82;101240.78;5010309;28;20054;-38
2021/06/28 03:22:26;;;;;;;5.72;4.18;;;;;;;14.93;63.64;101235.56;5011984;28;20133;-39
2021/06/28 03:24:53;;;;;;;10.10;4.43;;;;;;;14.92;63.40;101231.19;5011616;28;20061;-39
2021/06/28 03:27:21;;;;;;;7.90;4.05;;;;;;;14.87;63.45;101230.66;5011696;28;20069;-39
2021/06/28 03:29:48;;;;;;;6.45;3.65;;;;;;;14.85;63.32;101239.34;5011688;28;20052;-39
2021/06/28 03:32:18;;;;;;;8.27;4.00;;;;;;;14.80;63.20;101228.47;5012521;28;20052;-39
2021/06/28 03:34:45;;;;;;;6.53;3.70;;;;;;;14.75;63.09;101231.53;5010900;28;20691;-40
2021/06/28 03:37:12;;;;;;;4.05;3.65;;;;;;;14.77;63.21;101226.44;5011662;28;20053;-39
2021/06/28 03:39:39;;;;;;;5.35;3.75;;;;;;;14.82;62.93;101226.16;5011765;28;20088;-39
2021/06/28 03:42:06;;;;;;;5.45;3.83;;;;;;;14.77;62.78;101226.44;5011257;28;20084;-39
2021/06/28 03:44:33;;;;;;;5.32;4.25;;;;;;;14.79;62.44;101226.88;5012022;28;20050;-41
2021/06/28 03:47:01;;;;;;;6.25;4.00;;;;;;;14.72;62.88;101221.13;4993999;28;20046;-38
2021/06/28 03:49:28;;;;;;;4.55;3.55;;;;;;;14.67;62.67;101218.59;5011364;28;20501;-39
2021/06/28 03:51:55;;;;;;;4.40;3.10;;;;;;;14.73;62.54;101213.56;5012225;28;20554;-40
2021/06/28 03:54:22;;;;;;;8.13;4.03;;;;;;;14.71;62.32;101215.91;5011138;28;20060;-39
2021/06/28 03:56:48;;;;;;;8.32;3.70;;;;;;;14.56;62.93;101217.56;5011428;28;20046;-38
2021/06/28 03:59:18;;;;;;;5.18;3.47;;;;;;;14.53;63.12;101207.91;5006268;28;20446;-39
2021/06/28 04:01:45;;;;;;;6.43;3.35;;;;;;;14.51;63.24;101212.25;4987409;28;20040;-38
2021/06/28 04:04:12;;;;;;;4.80;3.72;;;;;;;14.50;63.40;101205.06;5010964;28;20092;-38
2021/06/28 04:06:39;;;;;;;5.30;3.92;;;;;;;14.43;63.05;101208.47;5009531;28;20129;-39
2021/06/28 04:09:06;;;;;;;5.38;4.00;;;;;;;14.44;63.05;101203.72;5010195;28;20041;-39
2021/06/28 04:11:33;;;;;;;5.32;3.33;;;;;;;14.42;63.29;101206.06;5011845;28;20392;-38
2021/06/28 04:14:00;;;;;;;7.68;4.43;;;;;;;14.41;63.30;101201.63;5008223;28;20042;-40
2021/06/28 04:16:27;;;;;;;4.38;3.13;;;;;;;14.40;63.30;101211.19;5000625;28;20124;-39
2021/06/28 04:18:54;;;;;;;5.55;4.00;;;;;;;14.35;63.35;101219.81;5006919;28;20499;-39
2021/06/28 04:21:21;;;;;;;4.80;3.65;;;;;;;14.32;63.48;101223.31;5009462;28;20053;-38
2021/06/28 04:23:48;;;;;;;6.38;4.28;;;;;;;14.32;63.82;101212.16;5010897;28;20049;-38
2021/06/28 04:26:15;;;;;;;5.25;3.55;;;;;;;14.35;63.65;101219.81;5010864;28;20088;-38
2021/06/28 04:28:42;;;;;;;6.40;3.70;;;;;;;14.41;63.33;101223.94;5009794;28;20160;-38
2021/06/28 04:31:09;;;;;;;5.25;4.47;;;;;;;14.43;63.20;101222.41;5010896;28;20096;-38
2021/06/28 04:33:36;;;;;;;6.82;3.65;;;;;;;14.47;63.19;101214.94;5011100;28;20061;-38
2021/06/28 04:36:03;;;;;;;5.65;3.97;;;;;;;14.51;62.98;101224.19;5006665;28;20038;-38
2021/06/28 04:38:30;;;;;;;6.53;3.92;;;;;;;14.62;62.65;101225.28;5010594;28;20380;-39
2021/06/28 04:40:57;;;;;;;6.13;3.45;;;;;;;14.54;62.74;101228.25;5010773;28;20065;-39
2021/06/28 04:43:24;;;;;;;6.03;3.90;;;;;;;14.45;63.14;101227.63;5003937;28;20456;-38
2021/06/28 04:45:51;;;;;;;5.78;3.78;;;;;;;14.34;63.60;101224.56;5010815;28;20117;-39
2021/06/28 04:48:17;;;;;;;6.03;3.85;;;;;;;14.36;63.72;101221.41;5010126;28;20100;-41
2021/06/28 04:50:44;;;;;;;5.07;3.78;;;;;;;14.36;63.66;101221.41;5010203;28;20078;-39
2021/06/28 04:53:11;;;;;;;6.45;3.28;;;;;;;14.42;63.61;101225.56;5010967;28;20477;-39
2021/06/28 04:55:38;;;;;;;5.68;3.83;;;;;;;14.42;63.49;101229.16;5009919;28;20085;-39
2021/06/28 04:58:06;;;;;;;6.85;4.30;;;;;;;14.51;63.38;101228.97;5010342;28;20053;-39
2021/06/28 05:00:32;;;;;;;4.32;3.42;;;;;;;14.59;63.15;101222.38;5010225;28;20042;-39
2021/06/28 05:02:59;;;;;;;7.07;3.70;;;;;;;14.62;63.43;101230.03;5010816;28;20137;-38
2021/06/28 05:05:26;;;;;;;5.22;4.03;;;;;;;14.60;63.39;101224.84;5010727;28;20129;-39
2021/06/28 05:07:53;;;;;;;7.38;3.72;;;;;;;14.70;63.22;101226.25;5009744;28;20840;-38
2021/06/28 05:10:20;;;;;;;4.63;3.70;;;;;;;14.68;63.27;101217.44;5009748;28;20104;-40
2021/06/28 05:12:47;;;;;;;8.15;5.22;;;;;;;14.72;63.45;101214.75;5011414;28;20061;-39
2021/06/28 05:15:14;;;;;;;5.78;4.10;;;;;;;14.81;63.19;101221.75;5013505;28;20148;-41
2021/06/28 05:17:42;;;;;;;5.22;4.15;;;;;;;14.75;63.25;101223.19;5014088;28;20113;-39
2021/06/28 05:20:11;;;;;;;6.20;4.20;;;;;;;14.79;63.30;101232.47;5013607;28;20080;-40
2021/06/28 05:22:39;;;;;;;9.13;4.68;;;;;;;14.87;63.10;101233.44;5014618;28;20077;-38
2021/06/28 05:25:07;;;;;;;5.90;4.00;;;;;;;14.90;63.05;101230.75;5013550;28;20149;-40
2021/06/28 05:27:35;;;;;;;7.03;5.00;;;;;;;14.89;63.02;101231.91;5013576;28;20116;-38
2021/06/28 05:30:08;;;;;;;5.72;4.57;;;;;;;14.84;63.14;101226.59;5009601;28;20152;-39
2021/06/28 05:32:36;;;;;;;6.35;4.38;;;;;;;14.86;63.19;101215.88;5014697;28;20045;-39
2021/06/28 05:35:05;;;;;;;7.80;4.45;;;;;;;14.87;63.44;101220.31;5013546;28;20038;-38
2021/06/28 05:37:32;;;;;;;8.27;4.43;;;;;;;14.93;63.39;101218.06;5013729;28;20077;-39
2021/06/28 05:40:04;;;;;;;7.13;4.43;;;;;;;15.04;63.28;101217.09;5013772;28;20053;-39
2021/06/28 05:42:31;;;;;;;7.05;4.68;;;;;;;15.09;63.28;101222.41;5014523;28;20168;-39
2021/06/28 05:44:58;;;;;;;7.75;4.55;;;;;;;15.14;63.18;101224.91;5009136;28;20073;-39
2021/06/28 05:47:24;;;;;;;9.25;4.80;;;;;;;15.13;63.43;101223.31;5013420;28;20570;-39
2021/06/28 05:49:51;;;;;;;5.45;4.20;;;;;;;15.17;63.51;101229.75;5012803;28;20129;-39
2021/06/28 05:52:21;;;;;;;7.32;4.88;;;;;;;15.22;63.54;101220.31;5013747;28;20052;-39
2021/06/28 05:54:48;;;;;;;6.22;4.35;;;;;;;15.36;63.42;101231.75;5013440;28;20495;-38
2021/06/28 05:57:18;;;;;;;6.60;4.32;;;;;;;15.45;63.32;101239.94;5008306;28;20505;-39
2021/06/28 05:59:46;;;;;;;6.88;4.57;;;;;;;15.48;63.44;101242.03;5012899;28;20510;-39
2021/06/28 06:02:14;;;;;;;4.13;3.72;;;;;;;15.49;63.51;101240.84;5014220;28;20634;-38
2021/06/28 06:04:42;;;;;;;4.53;4.13;;;;;;;15.57;63.30;101242.59;5013430;28;20470;-38
2021/06/28 06:07:09;;;;;;;5.25;3.65;;;;;;;15.63;63.43;101252.28;5013716;28;20149;-39
2021/06/28 06:09:37;;;;;;;9.40;3.95;;;;;;;15.62;63.62;101251.47;5012378;28;20564;-39
2021/06/28 06:12:05;;;;;;;5.57;3.72;;;;;;;15.63;63.46;101246.72;5013678;28;20088;-39
2021/06/28 06:14:32;;;;;;;6.88;4.18;;;;;;;15.68;63.11;101263.16;5020146;28;20096;-39
2021/06/28 06:16:59;;;;;;;5.72;3.60;;;;;;;15.67;63.02;101264.38;5013374;28;20084;-40
2021/06/28 06:19:26;;;;;;;6.63;4.10;;;;;;;15.76;63.00;101273.31;5012191;28;20137;-39
2021/06/28 06:21:57;;;;;;;6.82;4.28;;;;;;;15.74;62.89;101270.09;5014309;28;20077;-39
2021/06/28 06:24:27;;;;;;;5.50;3.65;;;;;;;15.78;62.91;101273.75;5012918;28;20088;-40
2021/06/28 06:26:56;;;;;;;8.68;3.80;;;;;;;15.91;62.73;101274.41;5011981;28;20042;-39
2021/06/28 06:29:25;;;;;;;7.07;4.07;;;;;;;15.98;62.54;101274.56;5012825;28;20506;-39
2021/06/28 06:31:53;;;;;;;6.20;4.13;;;;;;;15.97;62.58;101276.53;5002897;28;20077;-39
2021/06/28 06:34:20;;;;;;;8.30;3.47;;;;;;;15.98;62.49;101280.94;5012500;28;20132;-39
2021/06/28 06:36:46;;;;;;;10.05;3.95;;;;;;;16.01;62.24;101280.22;5011417;28;20077;-38
2021/06/28 06:39:13;;;;;;;5.28;4.05;;;;;;;15.97;62.32;101282.13;5012939;28;20132;-39
2021/06/28 06:41:41;;;;;;;3.83;3.35;;;;;;;15.95;62.53;101275.28;5012835;28;20053;-43
2021/06/28 06:44:08;;;;;;;3.03;2.83;;;;;;;15.99;62.46;101282.56;5011378;28;20045;-39
2021/06/28 06:46:35;;;;;;;9.20;4.35;;;;;;;15.96;62.42;101293.66;5012437;28;20145;-39
2021/06/28 06:49:04;;;;;;;5.13;3.70;;;;;;;15.93;62.41;101284.03;4995034;28;20050;-39
2021/06/28 06:51:32;;;;;;;7.25;3.42;;;;;;;15.91;62.61;101292.00;5012613;28;20470;-39
2021/06/28 06:53:58;;;;;;;4.82;3.45;;;;;;;15.93;62.63;101298.00;5012347;28;20124;-39
2021/06/28 06:56:25;;;;;;;5.72;3.25;;;;;;;15.90;62.70;101286.75;5011068;28;20042;-40
2021/06/28 06:58:52;;;;;;;9.07;3.90;;;;;;;15.95;62.70;101287.28;5012442;28;20133;-39
2021/06/28 07:01:19;;;;;;;5.85;3.20;;;;;;;15.93;62.48;101292.44;5011727;28;20120;-39
2021/06/28 07:03:46;;;;;;;5.68;3.65;;;;;;;15.95;62.53;101283.66;5011408;28;20125;-39
2021/06/28 07:06:13;;;;;;;5.90;3.78;;;;;;;16.02;62.57;101289.41;5008365;28;20046;-39
2021/06/28 07:08:40;;;;;;;3.88;3.17;;;;;;;16.03;62.53;101296.59;5005784;28;20104;-39
2021/06/28 07:11:12;;;;;;;3.70;3.10;;;;;;;16.05;62.68;101297.03;5011750;28;20557;-39
2021/06/28 07:13:40;;;;;;;4.30;3.60;;;;;;;16.03;62.75;101302.19;5006505;28;20447;-40
2021/06/28 07:16:07;;;;;;;5.97;3.13;;;;;;;16.09;62.92;101301.53;5008612;28;20049;-39
2021/06/28 07:18:34;;;;;;;6.00;3.30;;;;;;;16.14;62.82;101300.41;5009421;28;20069;-40
2021/06/28 07:21:02;;;;;;;5.30;3.15;;;;;;;16.21;62.96;101289.38;5007929;28;20041;-39
2021/06/28 07:23:30;;;;;;;4.43;2.92;;;;;;;16.24;62.93;101292.25;4998368;28;20112;-39
2021/06/28 07:26:00;;;;;;;5.20;2.83;;;;;;;16.33;62.89;101292.81;5009235;28;20474;-40
2021/06/28 07:28:29;;;;;;;3.88;3.08;;;;;;;16.49;62.81;101295.50;5006399;28;20054;-38
2021/06/28 07:30:59;;;;;;;4.55;3.42;;;;;;;16.51;62.65;101292.31;5009673;28;20041;-40
2021/06/28 07:33:28;;;;;;;4.90;3.55;;;;;;;16.55;62.79;101293.25;5010415;28;20080;-44
2021/06/28 07:35:58;;;;;;;4.60;3.25;;;;;;;16.59;62.83;101288.50;5007052;23;20460;-42
2021/06/28 07:38:26;;;;;;;4.82;3.20;;;;;;;16.72;62.55;101287.13;5014682;28;20037;-42
2021/06/28 07:40:56;;;;;;;6.07;3.50;;;;;;;16.86;62.54;101299.38;5012208;28;20129;-44
2021/06/28 07:43:23;;;;;;;3.13;2.67;;;;;;;16.98;62.66;101301.16;5008120;28;20084;-41
2021/06/28 07:45:50;;;;;;;5.32;3.58;;;;;;;17.09;62.48;101299.34;5019239;28;20045;-41
2021/06/28 07:48:17;;;;;;;5.40;3.10;;;;;;;17.18;61.91;101299.91;5018753;28;20042;-41
2021/06/28 07:50:44;;;;;;;4.90;2.97;;;;;;;17.25;61.41;101304.78;5019777;28;20069;-44
2021/06/28 07:53:16;;;;;;;4.97;3.80;;;;;;;17.19;61.10;101309.88;5011513;28;20046;-41
2021/06/28 07:55:44;;;;;;;5.07;3.83;;;;;;;17.19;61.05;101309.06;5009678;28;20570;-41
2021/06/28 07:58:11;;;;;;;4.72;3.10;;;;;;;17.16;60.92;101313.44;5003335;28;20291;-41
2021/06/28 08:00:38;;;;;;;5.00;3.78;;;;;;;17.15;60.99;101308.22;5015347;28;20613;-43
2021/06/28 08:03:07;;;;;;;4.60;3.15;;;;;;;17.14;61.00;101315.81;5013293;28;20049;-41
2021/06/28 08:05:37;;;;;;;5.80;4.10;;;;;;;17.12;61.07;101311.78;4993230;28;20064;-44
2021/06/28 08:08:05;;;;;;;8.45;4.13;;;;;;;17.13;60.98;101310.59;4993829;28;20127;-41
2021/06/28 08:10:32;;;;;;;5.28;3.03;;;;;;;17.25;61.04;101316.78;5003017;28;20112;-44
2021/06/28 08:13:00;;;;;;;5.18;3.05;;;;;;;17.38;60.87;101317.38;5011996;28;20042;-42
2021/06/28 08:15:27;;;;;;;5.57;3.15;;;;;;;17.46;60.44;101317.09;5005411;28;20069;-41
2021/06/28 08:17:54;;;;;;;6.63;3.75;;;;;;;17.43;60.30;101323.44;5011463;28;20075;-41
2021/06/28 08:20:24;;;;;;;5.20;3.45;;;;;;;17.36;60.00;101320.56;5009212;28;20053;-41
2021/06/28 08:22:51;;;;;;;3.55;2.63;;;;;;;17.39;60.12;101317.00;5003301;28;20109;-42
2021/06/28 08:25:19;;;;;;;4.05;3.10;;;;;;;17.46;59.85;101324.69;5009905;28;20129;-47
2021/06/28 08:27:50;;;;;;;3.25;2.53;;;;;;;17.46;59.72;101310.69;4999846;28;20491;-44
2021/06/28 08:30:19;;;;;;;6.15;3.50;;;;;;;17.48;59.70;101311.94;5006330;28;20490;-44
2021/06/28 08:32:46;;;;;;;5.53;2.58;;;;;;;17.56;59.51;101310.88;5010626;28;20462;-41
2021/06/28 08:35:14;;;;;;;3.95;2.60;;;;;;;17.68;59.13;101309.84;5004956;28;20454;-40
2021/06/28 08:37:41;;;;;;;4.65;2.72;;;;;;;17.76;58.84;101314.34;4990981;28;20108;-41
2021/06/28 08:40:10;;;;;;;3.92;2.80;;;;;;;17.80;58.58;101304.00;5012523;28;20073;-46
2021/06/28 08:42:37;;;;;;;3.20;2.42;;;;;;;17.70;58.46;101309.44;5010253;28;20549;-41
2021/06/28 08:45:05;;;;;;;5.53;3.17;;;;;;;17.72;58.63;101305.09;5003286;28;20052;-42
2021/06/28 08:47:32;;;;;;;4.32;3.03;;;;;;;17.86;58.57;101305.28;4992522;28;20073;-41
2021/06/28 08:50:00;;;;;;;2.95;2.60;;;;;;;17.91;58.42;101309.72;5011472;28;20070;-41
2021/06/28 08:52:30;;;;;;;5.05;4.13;;;;;;;17.97;58.43;101302.59;5006212;28;20042;-41
2021/06/28 08:54:56;;;;;;;3.00;2.58;;;;;;;18.15;58.08;101307.22;5012203;28;20132;-41
2021/06/28 08:57:23;;;;;;;7.72;2.47;;;;;;;18.23;57.91;101294.09;5010345;28;20042;-46
2021/06/28 08:59:52;;;;;;;4.90;3.63;;;;;;;18.32;57.71;101305.00;5008890;28;20137;-47
2021/06/28 09:02:19;;;;;;;3.75;2.78;;;;;;;18.39;57.53;101300.28;5008809;28;20152;-42
2021/06/28 09:05:13;;;;;;;4.60;2.97;;;;;;;18.46;56.80;101308.75;5008263;28;20046;-42
2021/06/28 09:07:40;;;;;;;5.68;2.50;;;;;;;18.61;56.78;101316.13;5003402;28;20042;-43
2021/06/28 09:10:32;;;;;;;3.03;2.45;;;;;;;18.74;55.64;101328.69;5008174;28;20442;-44
2021/06/28 09:13:01;;;;;;;2.90;2.15;;;;;;;18.72;56.29;101328.28;4991210;28;20048;-44
2021/06/28 09:15:37;;;;;;;3.47;2.50;;;;;;;18.71;55.84;101323.88;4989948;28;20104;-43
2021/06/28 09:18:17;;;;;;;4.63;3.00;;;;;;;18.74;55.08;101320.28;5006024;28;20115;-42
2021/06/28 09:20:44;;;;;;;7.13;3.00;;;;;;;18.71;55.47;101314.66;5007973;28;20088;-44
2021/06/28 09:23:25;;;;;;;2.95;2.65;;;;;;;18.74;54.79;101314.66;5007611;28;20081;-42
2021/06/28 09:25:55;;;;;;;3.38;2.65;;;;;;;18.77;55.16;101307.50;5001671;28;20137;-41
2021/06/28 09:28:36;;;;;;;3.38;2.35;;;;;;;18.69;54.42;101295.38;5007876;28;20042;-42
2021/06/28 09:31:06;;;;;;;5.28;1.95;;;;;;;18.70;54.91;101301.81;5008338;28;20052;-43
2021/06/28 09:33:34;;;;;;;5.20;2.63;;;;;;;18.76;54.99;101301.06;5005230;28;20049;-44
2021/06/28 09:36:23;;;;;;;6.63;3.95;;;;;;;18.81;54.85;101297.91;4995675;28;20054;-43
2021/06/28 09:38:49;;;;;;;4.63;2.30;;;;;;;18.87;54.86;101295.56;4997400;28;20054;-41
2021/06/28 09:41:25;;;;;;;3.78;2.60;;;;;;;18.90;54.40;101293.97;4996575;28;20479;-43
2021/06/28 09:44:13;;;;;;;2.53;2.33;;;;;;;18.84;55.09;101291.53;5001351;28;20038;-43
2021/06/28 09:46:39;;;;;;;5.63;3.13;;;;;;;18.78;55.14;101298.69;5006888;28;20446;-44
2021/06/28 09:49:07;;;;;;;2.90;2.25;;;;;;;18.83;55.10;101289.09;5007813;28;20141;-44
2021/06/28 09:51:37;;;;;;;3.67;2.33;;;;;;;18.84;54.82;101285.91;5007037;28;20042;-43
2021/06/28 09:54:07;;;;;;;2.65;2.30;;;;;;;18.87;54.52;101278.72;5007399;28;20054;-41
2021/06/28 09:56:37;;;;;;;4.03;2.60;;;;;;;19.00;54.48;101273.59;5007296;28;20076;-42
2021/06/28 09:59:22;;;;;;;4.50;3.38;;;;;;;18.96;53.84;101269.94;5006644;28;20045;-43
2021/06/28 10:05:40;;;;;;;3.72;2.17;;;;;;;19.10;54.35;101278.50;4163331;23;20104;-46
2021/06/28 10:08:17;;;;;;;6.88;2.95;;;;;;;19.09;53.38;101274.09;4998735;28;20041;-40
2021/06/28 10:10:44;;;;;;;3.85;2.20;;;;;;;19.15;53.73;101278.13;5000848;28;20078;-41
2021/06/28 10:13:13;;;;;;;4.93;2.60;;;;;;;19.13;53.33;101274.91;4997065;28;20785;-40
2021/06/28 10:15:42;;;;;;;4.47;2.22;;;;;;;19.17;53.75;101276.53;5001603;28;20053;-41
2021/06/28 10:18:11;;;;;;;;;;;;;;;19.12;53.61;101271.28;5000909;28;20130;-41
2021/06/28 10:20:41;;;;;;;6.93;2.72;;;;;;;19.07;53.71;101266.03;5008613;28;19931;-43
2021/06/28 10:23:09;;;;;;;3.45;2.30;;;;;;;19.11;53.99;101266.06;4995938;28;20042;-40
2021/06/28 10:25:37;;;;;;;4.35;2.70;;;;;;;19.20;53.99;101260.91;4996299;28;20046;-43
2021/06/28 10:28:04;;;;;;;3.92;1.88;;;;;;;19.24;53.67;101278.59;4992243;28;20120;-41
2021/06/28 10:30:34;;;;;;;4.18;2.22;;;;;;;19.25;53.54;101266.16;5005319;28;20136;-41
2021/06/28 10:33:08;;;;;;;4.20;2.28;;;;;;;19.33;53.58;101270.63;4998911;28;20488;-40
2021/06/28 10:35:41;;;;;;;4.40;2.45;;;;;;;19.28;52.41;101273.78;4991348;28;20687;-47
2021/06/28 10:38:14;;;;;;;4.03;2.40;;;;;;;19.35;53.12;101271.81;4992500;28;20046;-41
2021/06/28 10:40:58;;;;;;;4.15;2.72;;;;;;;19.36;53.24;101279.06;4989310;28;20046;-47
2021/06/28 10:43:33;;;;;;;6.30;3.85;;;;;;;19.54;53.32;101284.03;4991966;28;20053;-41
2021/06/28 10:46:04;;;;;;;2.70;2.15;;;;;;;19.62;53.22;101274.44;4992132;28;20148;-45
2021/06/28 10:48:44;;;;;;;4.13;2.17;;;;;;;19.58;51.64;101280.03;4992874;28;20054;-41
2021/06/28 10:51:12;;;;;;;1.98;1.58;;;;;;;19.63;52.28;101279.66;4981864;28;20035;-40
2021/06/28 10:53:44;;;;;;;1.55;1.45;;;;;;;19.73;52.47;101276.09;4991747;28;20419;-44
2021/06/28 10:56:31;;;;;;;2.55;2.05;;;;;;;19.88;51.71;101283.34;4992699;28;20049;-41
2021/06/28 10:59:16;;;;;;;1.83;1.70;;;;;;;20.11;51.36;101290.69;5000136;28;20038;-42
2021/06/28 11:01:43;;;;;;;;;;;;;;;20.16;51.33;101288.28;5001760;28;20498;-41
2021/06/28 11:04:16;;;;;;;;;;;;;;;20.14;51.25;101285.06;5018089;28;20580;-40
2021/06/28 11:07:13;;;;;;;7.90;2.45;;;;;;;20.16;50.82;101279.03;4995747;28;19926;-42
2021/06/28 11:09:42;;;;;;;2.42;2.17;;;;;;;20.18;51.65;101276.63;4991197;28;20054;-42
2021/06/28 11:12:20;;;;;;;2.15;1.95;;;;;;;20.21;49.87;101278.66;5009672;28;20070;-41
2021/06/28 11:15:24;;;;;;;4.53;1.83;;;;;;;20.31;50.04;101272.28;4995837;28;20137;-41
2021/06/28 11:17:52;;;;;;;3.78;2.83;;;;;;;20.40;50.41;101272.72;4992535;28;20047;-43
2021/06/28 11:20:28;;;;;;;2.67;2.03;;;;;;;20.52;50.32;101272.31;5001569;28;20046;-42
2021/06/28 11:23:02;;;;;;;3.95;2.05;;;;;;;20.59;50.16;101275.16;5006643;28;20505;-42
2021/06/28 11:25:49;;;;;;;3.63;2.28;;;;;;;20.71;49.91;101274.75;4998276;28;20375;-42
2021/06/28 11:28:21;;;;;;;3.45;1.80;;;;;;;20.70;50.45;101275.97;5002214;28;20070;-43
2021/06/28 11:30:56;;;;;;;4.18;2.28;;;;;;;20.66;50.11;101269.53;5000382;28;20061;-42
2021/06/28 11:33:38;;;;;;;2.65;1.88;;;;;;;20.75;49.95;101271.94;5004719;28;20038;-41
2021/06/28 11:36:35;;;;;;;3.42;2.13;;;;;;;20.86;49.15;101273.56;5006964;28;20046;-42
2021/06/28 11:39:27;;;;;;;2.17;1.95;;;;;;;20.96;48.71;101284.00;5000660;28;20046;-40
2021/06/28 11:42:30;;;;;;;2.38;2.00;;;;;;;21.03;48.98;101280.38;5003550;28;20046;-45